Time;durP1;ratioP1;P1;durP2;ratioP2;P2;SDS_P1;SDS_P2;PMS_P1;PMS_P2;Temp;Humidity;BMP_temperature;BMP_pressure;BME280_temperature;BME280_humidity;BME280_pressure;Samples;Min_cycle;Max_cycle;Signal;HPM_P1;HPM_P2
2023/04/06 02:02:25;;;;;;;32.08;12.68;;;;;;;;;;4301761;28;20050;-68
2023/04/06 02:04:52;;;;;;;32.83;11.88;;;;;;;;;;4267632;33;20071;-67
2023/04/06 02:07:18;;;;;;;23.25;11.75;;;;;;;;;;4262603;33;20052;-68
2023/04/06 02:09:44;;;;;;;32.03;12.07;;;;;;;;;;4264841;33;20058;-68
2023/04/06 02:12:12;;;;;;;37.83;14.57;;;;;;;;;;4264560;33;20481;-67
2023/04/06 02:14:38;;;;;;;38.45;14.45;;;;;;;;;;4250355;33;20105;-69
2023/04/06 02:17:04;;;;;;;43.95;15.63;;;;;;;;;;4247191;33;20073;-70
2023/04/06 02:19:31;;;;;;;38.78;15.90;;;;;;;;;;4250410;33;20054;-69
2023/04/06 02:21:57;;;;;;;38.67;14.70;;;;;;;;;;4250745;33;20581;-67
2023/04/06 02:24:23;;;;;;;46.08;16.42;;;;;;;;;;4250102;33;20094;-68
2023/04/06 02:26:49;;;;;;;41.35;16.90;;;;;;;;;;4249000;33;20038;-68
2023/04/06 02:29:15;;;;;;;49.35;17.20;;;;;;;;;;4250647;33;20993;-69
2023/04/06 02:31:42;;;;;;;47.40;16.35;;;;;;;;;;4250351;33;20042;-68
2023/04/06 02:34:11;;;;;;;39.38;15.75;;;;;;;;;;4221499;34;20067;-68
2023/04/06 02:36:39;;;;;;;34.35;15.23;;;;;;;;;;4220981;34;20062;-69
2023/04/06 02:39:07;;;;;;;38.20;14.82;;;;;;;;;;4221612;34;20055;-68
2023/04/06 02:41:33;;;;;;;56.60;17.40;;;;;;;;;;4223317;34;20034;-68
2023/04/06 02:44:00;;;;;;;52.53;16.40;;;;;;;;;;4218555;34;20067;-68
2023/04/06 02:46:27;;;;;;;37.83;14.77;;;;;;;;;;4192171;34;20093;-68
2023/04/06 02:48:53;;;;;;;34.13;14.05;;;;;;;;;;4192120;34;20081;-69
2023/04/06 02:51:20;;;;;;;43.97;17.48;;;;;;;;;;4190983;34;20048;-68
2023/04/06 02:53:48;;;;;;;61.03;20.42;;;;;;;;;;4181100;34;20063;-68
2023/04/06 02:56:14;;;;;;;48.78;18.90;;;;;;;;;;4180219;34;20066;-68
2023/04/06 02:58:40;;;;;;;42.55;14.70;;;;;;;;;;4207443;34;20191;-68
2023/04/06 03:01:07;;;;;;;51.50;16.83;;;;;;;;;;4187062;34;20069;-67
2023/04/06 03:03:34;;;;;;;56.35;18.60;;;;;;;;;;4185993;34;20074;-68
2023/04/06 03:06:02;;;;;;;37.78;14.52;;;;;;;;;;4179061;34;20073;-68
2023/04/06 03:08:30;;;;;;;40.00;16.75;;;;;;;;;;4179341;34;20110;-68
2023/04/06 03:10:56;;;;;;;41.70;17.17;;;;;;;;;;4177484;34;20407;-69
2023/04/06 03:13:28;;;;;;;40.85;14.25;;;;;;;;;;4173377;34;20052;-67
2023/04/06 03:15:55;;;;;;;43.20;14.73;;;;;;;;;;4180777;34;20110;-68
2023/04/06 03:18:25;;;;;;;42.58;13.80;;;;;;;;;;4180090;34;20510;-67
2023/04/06 03:20:53;;;;;;;38.53;12.75;;;;;;;;;;4179848;34;20064;-69
2023/04/06 03:23:21;;;;;;;36.67;12.75;;;;;;;;;;4184408;34;20101;-68
2023/04/06 03:25:47;;;;;;;42.90;14.57;;;;;;;;;;4207646;34;20849;-67
2023/04/06 03:28:14;;;;;;;38.53;14.25;;;;;;;;;;4207579;34;20061;-68
2023/04/06 03:30:41;;;;;;;36.15;14.00;;;;;;;;;;4207098;34;20052;-68
2023/04/06 03:33:08;;;;;;;37.65;12.70;;;;;;;;;;4208033;34;20104;-70
2023/04/06 03:35:36;;;;;;;40.10;14.02;;;;;;;;;;4205960;34;20085;-68
2023/04/06 03:38:03;;;;;;;22.15;8.38;;;;;;;;;;4208314;34;20423;-69
2023/04/06 03:40:30;;;;;;;25.88;11.27;;;;;;;;;;4234028;33;20134;-68
2023/04/06 03:42:56;;;;;;;36.05;14.10;;;;;;;;;;4235805;33;20076;-69
2023/04/06 03:45:22;;;;;;;30.52;14.38;;;;;;;;;;4246028;33;20474;-70
2023/04/06 03:47:49;;;;;;;34.22;14.10;;;;;;;;;;4249496;33;20050;-69
2023/04/06 03:50:15;;;;;;;41.65;14.55;;;;;;;;;;4249175;33;20035;-69
2023/04/06 03:52:43;;;;;;;43.00;14.60;;;;;;;;;;4249892;33;20045;-69
2023/04/06 03:55:09;;;;;;;38.67;13.70;;;;;;;;;;4249118;33;20102;-70
2023/04/06 03:57:37;;;;;;;40.05;14.82;;;;;;;;;;4249023;33;20075;-68
2023/04/06 04:00:04;;;;;;;25.08;9.60;;;;;;;;;;4237110;33;20445;-68
2023/04/06 04:02:38;;;;;;;30.05;11.25;;;;;;;;;;4232702;33;20072;-68
2023/04/06 04:05:05;;;;;;;15.32;6.95;;;;;;;;;;4226100;33;20047;-70
2023/04/06 04:07:31;;;;;;;13.85;5.78;;;;;;;;;;4219997;34;20039;-69
2023/04/06 04:09:57;;;;;;;14.87;7.25;;;;;;;;;;4220958;34;20432;-69
2023/04/06 04:12:24;;;;;;;53.47;19.02;;;;;;;;;;4193126;34;20464;-69
2023/04/06 04:14:50;;;;;;;48.58;18.00;;;;;;;;;;4194196;34;20058;-69
2023/04/06 04:17:16;;;;;;;49.65;18.73;;;;;;;;;;4189441;34;20183;-70
2023/04/06 04:19:42;;;;;;;25.05;8.25;;;;;;;;;;4191752;34;20086;-68
2023/04/06 04:22:09;;;;;;;19.90;8.60;;;;;;;;;;4193458;34;20043;-68
2023/04/06 04:24:36;;;;;;;17.00;6.53;;;;;;;;;;4199387;34;20031;-68
2023/04/06 04:27:03;;;;;;;8.90;5.07;;;;;;;;;;4207737;34;20406;-68
2023/04/06 04:29:29;;;;;;;18.70;6.78;;;;;;;;;;4203822;34;20133;-69
2023/04/06 04:31:57;;;;;;;13.52;6.40;;;;;;;;;;4207998;34;20072;-69
2023/04/06 04:34:26;;;;;;;37.40;13.77;;;;;;;;;;4206379;34;20409;-68
2023/04/06 04:36:52;;;;;;;17.67;7.22;;;;;;;;;;4201547;34;20039;-68
2023/04/06 04:39:19;;;;;;;19.75;8.27;;;;;;;;;;4206162;34;20446;-68
2023/04/06 04:41:47;;;;;;;16.42;6.65;;;;;;;;;;4210684;34;20073;-69
2023/04/06 04:44:13;;;;;;;25.42;7.90;;;;;;;;;;4209425;34;20438;-69
2023/04/06 04:46:41;;;;;;;12.18;6.62;;;;;;;;;;4226545;33;20372;-68
2023/04/06 04:49:08;;;;;;;22.98;8.90;;;;;;;;;;4237678;33;20424;-70
2023/04/06 04:51:34;;;;;;;25.12;7.20;;;;;;;;;;4252582;33;20915;-68
2023/04/06 04:54:01;;;;;;;22.42;8.63;;;;;;;;;;4250912;33;20058;-69
2023/04/06 04:56:29;;;;;;;21.42;8.55;;;;;;;;;;4251044;33;20345;-69
2023/04/06 04:58:56;;;;;;;26.58;9.00;;;;;;;;;;4251321;33;20051;-71
2023/04/06 05:01:23;;;;;;;16.37;7.47;;;;;;;;;;4254508;33;20057;-68
2023/04/06 05:03:50;;;;;;;21.10;8.85;;;;;;;;;;4265812;33;20500;-67
2023/04/06 05:06:18;;;;;;;29.83;10.52;;;;;;;;;;4265338;33;20045;-68
2023/04/06 05:08:44;;;;;;;18.37;7.47;;;;;;;;;;4266441;33;20048;-68
2023/04/06 05:11:11;;;;;;;19.08;7.07;;;;;;;;;;4264890;33;20053;-69
2023/04/06 05:13:38;;;;;;;17.75;7.75;;;;;;;;;;4266835;33;20054;-68
2023/04/06 05:16:06;;;;;;;22.23;8.73;;;;;;;;;;4265991;33;20083;-67
2023/04/06 05:18:32;;;;;;;22.80;9.05;;;;;;;;;;4244369;33;20059;-68
2023/04/06 05:21:00;;;;;;;28.62;8.93;;;;;;;;;;4239391;33;20046;-69
2023/04/06 05:23:27;;;;;;;20.58;7.45;;;;;;;;;;4238676;33;20060;-68
2023/04/06 05:25:54;;;;;;;26.10;8.18;;;;;;;;;;4239816;33;20479;-68
2023/04/06 05:28:20;;;;;;;23.95;8.20;;;;;;;;;;4235836;33;20394;-67
2023/04/06 05:30:47;;;;;;;27.50;9.98;;;;;;;;;;4236758;33;20505;-68
2023/04/06 05:33:13;;;;;;;24.50;8.50;;;;;;;;;;4234719;33;20064;-68
2023/04/06 05:35:41;;;;;;;18.12;7.78;;;;;;;;;;4238126;33;20082;-68
2023/04/06 05:38:08;;;;;;;22.70;8.20;;;;;;;;;;4236787;33;20116;-67
2023/04/06 05:40:35;;;;;;;21.58;8.20;;;;;;;;;;4226578;33;20509;-68
2023/04/06 05:43:02;;;;;;;19.85;9.15;;;;;;;;;;4223082;34;20480;-68
2023/04/06 05:45:29;;;;;;;28.35;10.23;;;;;;;;;;4221397;33;20069;-68
2023/04/06 05:47:55;;;;;;;38.05;11.88;;;;;;;;;;4223234;34;20067;-68
2023/04/06 05:50:22;;;;;;;33.67;11.65;;;;;;;;;;4222464;33;20053;-68
2023/04/06 05:52:48;;;;;;;29.17;9.63;;;;;;;;;;4230949;33;20461;-68
2023/04/06 05:55:15;;;;;;;26.27;8.45;;;;;;;;;;4235369;33;20039;-70
2023/04/06 05:57:42;;;;;;;25.98;10.50;;;;;;;;;;4234837;33;20057;-68
2023/04/06 06:00:09;;;;;;;22.83;8.32;;;;;;;;;;4248043;33;20105;-69
2023/04/06 06:02:39;;;;;;;32.67;9.73;;;;;;;;;;4258347;33;20081;-68
2023/04/06 06:05:08;;;;;;;26.45;10.10;;;;;;;;;;4263842;33;20482;-68
2023/04/06 06:07:34;;;;;;;21.02;8.68;;;;;;;;;;4264189;33;20407;-70
2023/04/06 06:10:02;;;;;;;29.60;9.57;;;;;;;;;;4251656;33;20046;-68
2023/04/06 06:12:29;;;;;;;24.40;8.90;;;;;;;;;;4257942;33;20046;-67
2023/04/06 06:14:56;;;;;;;25.60;8.90;;;;;;;;;;4253995;33;20038;-68
2023/04/06 06:17:23;;;;;;;23.40;8.65;;;;;;;;;;4254510;33;20042;-68
2023/04/06 06:19:50;;;;;;;24.08;8.63;;;;;;;;;;4253533;33;20092;-68
2023/04/06 06:22:17;;;;;;;22.00;7.07;;;;;;;;;;4257771;33;20072;-67
2023/04/06 06:24:44;;;;;;;15.13;7.25;;;;;;;;;;4256718;33;20030;-68
2023/04/06 06:27:11;;;;;;;21.42;8.80;;;;;;;;;;4255502;33;20509;-68
2023/04/06 06:29:38;;;;;;;25.73;9.27;;;;;;;;;;4227202;33;20080;-68
2023/04/06 06:32:05;;;;;;;21.83;9.02;;;;;;;;;;4226453;33;20049;-67
2023/04/06 06:34:31;;;;;;;20.77;9.07;;;;;;;;;;4229569;33;20209;-68
2023/04/06 06:36:58;;;;;;;26.98;9.02;;;;;;;;;;4227833;33;20163;-68
2023/04/06 06:39:24;;;;;;;19.58;8.88;;;;;;;;;;4228548;33;20088;-68
2023/04/06 06:41:51;;;;;;;21.42;9.05;;;;;;;;;;4214706;34;20043;-70
2023/04/06 06:44:21;;;;;;;18.45;8.13;;;;;;;;;;4203089;34;20076;-68
2023/04/06 06:46:47;;;;;;;23.48;9.45;;;;;;;;;;4221599;33;20405;-69
2023/04/06 06:49:14;;;;;;;25.90;8.07;;;;;;;;;;4219806;33;20127;-68
2023/04/06 06:51:40;;;;;;;24.83;8.38;;;;;;;;;;4215991;33;20106;-69
2023/04/06 06:54:08;;;;;;;20.88;7.78;;;;;;;;;;4219057;33;20404;-68
2023/04/06 06:56:37;;;;;;;24.27;8.43;;;;;;;;;;4220885;33;20062;-68
2023/04/06 06:59:04;;;;;;;21.15;8.82;;;;;;;;;;4219270;33;20043;-68
2023/04/06 07:01:32;;;;;;;22.40;7.28;;;;;;;;;;4225535;33;20062;-68
2023/04/06 07:03:59;;;;;;;19.48;7.62;;;;;;;;;;4232044;33;20106;-68
2023/04/06 07:06:25;;;;;;;20.92;8.18;;;;;;;;;;4238798;33;20105;-69
2023/04/06 07:08:51;;;;;;;22.87;9.35;;;;;;;;;;4216259;33;20140;-68
2023/04/06 07:11:17;;;;;;;14.10;6.18;;;;;;;;;;4220328;33;20086;-68
2023/04/06 07:13:44;;;;;;;22.52;8.80;;;;;;;;;;4220507;34;20043;-68
2023/04/06 07:16:10;;;;;;;12.93;5.25;;;;;;;;;;4221287;33;20035;-68
2023/04/06 07:18:37;;;;;;;21.73;8.13;;;;;;;;;;4199151;34;20097;-68
2023/04/06 07:21:03;;;;;;;22.20;8.60;;;;;;;;;;4209048;34;20580;-69
2023/04/06 07:23:30;;;;;;;14.80;7.22;;;;;;;;;;4212947;34;20043;-69
2023/04/06 07:25:56;;;;;;;19.00;6.82;;;;;;;;;;4203941;34;20081;-68
2023/04/06 07:28:22;;;;;;;14.77;6.93;;;;;;;;;;4206794;34;20050;-67
2023/04/06 07:30:48;;;;;;;15.02;7.95;;;;;;;;;;4219069;34;20134;-67
2023/04/06 07:33:15;;;;;;;25.17;9.00;;;;;;;;;;4219800;33;20039;-68
2023/04/06 07:35:41;;;;;;;8.68;5.25;;;;;;;;;;4220576;33;20040;-69
2023/04/06 07:38:08;;;;;;;24.87;9.07;;;;;;;;;;4219825;33;20636;-69
2023/04/06 07:40:35;;;;;;;26.62;9.02;;;;;;;;;;4200994;34;20077;-68
2023/04/06 07:43:01;;;;;;;17.77;7.95;;;;;;;;;;4206735;34;20063;-67
2023/04/06 07:45:35;;;;;;;21.27;8.07;;;;;;;;;;4220989;33;20065;-68
2023/04/06 07:48:08;;;;;;;20.55;7.37;;;;;;;;;;4213382;33;20059;-68
2023/04/06 07:50:35;;;;;;;23.02;9.23;;;;;;;;;;4217965;34;20964;-68
2023/04/06 07:53:02;;;;;;;18.20;7.40;;;;;;;;;;4216825;34;20061;-67
2023/04/06 07:55:28;;;;;;;16.98;6.50;;;;;;;;;;4204632;34;20031;-67
2023/04/06 07:57:55;;;;;;;12.75;5.37;;;;;;;;;;4181997;34;20054;-70
2023/04/06 08:00:21;;;;;;;18.05;6.12;;;;;;;;;;4177255;34;20062;-68
2023/04/06 08:02:48;;;;;;;9.95;4.72;;;;;;;;;;4142527;34;20285;-68
2023/04/06 08:05:14;;;;;;;6.45;3.35;;;;;;;;;;4136487;34;20068;-68
2023/04/06 08:07:41;;;;;;;7.32;3.12;;;;;;;;;;4143277;34;20062;-68
2023/04/06 08:10:07;;;;;;;6.25;2.53;;;;;;;;;;4143822;34;20497;-70
2023/04/06 08:12:34;;;;;;;2.67;2.28;;;;;;;;;;4138045;34;20153;-67
2023/04/06 08:15:02;;;;;;;2.20;2.05;;;;;;;;;;4147861;34;20053;-68
2023/04/06 08:17:30;;;;;;;5.37;2.72;;;;;;;;;;4153763;34;20453;-68
2023/04/06 08:19:56;;;;;;;3.05;2.08;;;;;;;;;;4159827;34;20066;-69
2023/04/06 08:22:22;;;;;;;3.28;2.40;;;;;;;;;;4171260;34;20055;-68
2023/04/06 08:24:48;;;;;;;4.07;2.12;;;;;;;;;;4161716;34;20248;-68
2023/04/06 08:27:14;;;;;;;2.78;1.75;;;;;;;;;;4172720;34;20055;-68
2023/04/06 08:29:41;;;;;;;4.55;2.50;;;;;;;;;;4201143;34;20072;-68
2023/04/06 08:32:07;;;;;;;2.35;1.77;;;;;;;;;;4220295;33;20106;-68
2023/04/06 08:34:33;;;;;;;4.82;2.40;;;;;;;;;;4223860;33;20105;-68
2023/04/06 08:37:00;;;;;;;1.45;1.35;;;;;;;;;;4227394;33;20072;-68
2023/04/06 08:39:27;;;;;;;9.10;3.45;;;;;;;;;;4232243;33;20072;-68
2023/04/06 08:41:56;;;;;;;5.10;2.12;;;;;;;;;;4231452;33;20230;-68
2023/04/06 08:44:23;;;;;;;3.45;1.17;;;;;;;;;;4228720;33;20112;-68
2023/04/06 08:46:50;;;;;;;6.43;2.78;;;;;;;;;;4223823;33;20054;-69
2023/04/06 08:49:16;;;;;;;4.03;2.60;;;;;;;;;;4221459;34;20043;-68
2023/04/06 08:51:43;;;;;;;6.03;1.62;;;;;;;;;;4219442;34;20081;-68
2023/04/06 08:54:09;;;;;;;2.55;1.95;;;;;;;;;;4218810;33;20059;-69
2023/04/06 08:56:37;;;;;;;3.37;1.95;;;;;;;;;;4217313;33;20065;-70
2023/04/06 08:59:04;;;;;;;5.28;2.20;;;;;;;;;;4219251;33;20043;-69
2023/04/06 09:01:30;;;;;;;6.60;1.92;;;;;;;;;;4219381;33;20378;-68
2023/04/06 09:03:57;;;;;;;2.95;1.67;;;;;;;;;;4233563;33;20095;-68
2023/04/06 09:06:26;;;;;;;7.60;3.05;;;;;;;;;;4227164;33;20050;-68
2023/04/06 09:08:52;;;;;;;2.67;2.47;;;;;;;;;;4241866;33;20099;-70
2023/04/06 09:11:19;;;;;;;7.93;3.90;;;;;;;;;;4257300;33;20058;-68
2023/04/06 09:13:46;;;;;;;2.40;1.92;;;;;;;;;;4261279;33;20930;-68
2023/04/06 09:16:12;;;;;;;7.45;3.17;;;;;;;;;;4247433;33;20106;-68
2023/04/06 09:18:38;;;;;;;5.22;2.35;;;;;;;;;;4248018;33;20108;-68
2023/04/06 09:21:05;;;;;;;2.00;1.35;;;;;;;;;;4248422;33;20098;-68
2023/04/06 09:23:32;;;;;;;4.45;0.88;;;;;;;;;;4245495;33;20516;-68
2023/04/06 09:26:27;;;;;;;5.60;2.92;;;;;;;;;;4237046;33;20068;-70
2023/04/06 09:28:54;;;;;;;3.37;2.05;;;;;;;;;;4189496;34;20044;-69
2023/04/06 09:31:32;;;;;;;4.68;2.85;;;;;;;;;;4187249;34;20091;-68
2023/04/06 09:34:00;;;;;;;6.40;3.35;;;;;;;;;;4183612;34;20140;-68
2023/04/06 09:36:33;;;;;;;6.18;2.83;;;;;;;;;;4183581;34;20093;-68
2023/04/06 09:39:03;;;;;;;3.65;1.20;;;;;;;;;;4179506;34;20525;-69
2023/04/06 09:41:30;;;;;;;7.70;2.83;;;;;;;;;;4174719;34;20048;-68
2023/04/06 09:44:06;;;;;;;6.45;2.85;;;;;;;;;;4179643;34;20593;-68
2023/04/06 09:46:34;;;;;;;4.78;3.00;;;;;;;;;;4171968;34;20457;-69
2023/04/06 09:49:03;;;;;;;2.78;2.28;;;;;;;;;;4180790;34;20449;-68
2023/04/06 09:51:36;;;;;;;7.18;1.98;;;;;;;;;;4177908;34;20064;-68
2023/04/06 09:54:04;;;;;;;2.12;1.90;;;;;;;;;;4182790;34;20159;-68
2023/04/06 09:56:32;;;;;;;1.87;1.73;;;;;;;;;;4177749;34;20066;-67
2023/04/06 09:59:02;;;;;;;13.55;2.08;;;;;;;;;;4175851;34;20072;-69
2023/04/06 10:01:31;;;;;;;4.82;2.20;;;;;;;;;;4144793;34;20052;-68
2023/04/06 10:04:00;;;;;;;7.93;2.08;;;;;;;;;;4147286;34;20080;-70
2023/04/06 10:06:28;;;;;;;1.17;1.08;;;;;;;;;;4198746;34;20072;-68
2023/04/06 10:08:55;;;;;;;6.97;3.28;;;;;;;;;;4206606;34;20069;-68
2023/04/06 10:11:22;;;;;;;9.65;3.03;;;;;;;;;;4206839;34;20177;-68
2023/04/06 10:13:49;;;;;;;1.65;1.45;;;;;;;;;;4207352;34;20113;-67
2023/04/06 10:16:16;;;;;;;1.73;1.62;;;;;;;;;;4219360;34;20060;-68
2023/04/06 10:18:49;;;;;;;2.72;1.70;;;;;;;;;;4222684;34;20305;-68
2023/04/06 10:21:19;;;;;;;6.15;2.22;;;;;;;;;;4220952;34;20475;-69
2023/04/06 10:23:47;;;;;;;5.90;2.30;;;;;;;;;;4221377;34;20410;-68
2023/04/06 10:26:16;;;;;;;1.80;1.65;;;;;;;;;;4220572;34;20064;-70
2023/04/06 10:28:43;;;;;;;8.05;2.45;;;;;;;;;;4219027;34;20035;-70
2023/04/06 10:31:23;;;;;;;6.87;2.67;;;;;;;;;;4221344;34;20059;-68
2023/04/06 10:34:00;;;;;;;2.05;0.90;;;;;;;;;;4247965;33;20568;-68
2023/04/06 10:36:27;;;;;;;3.08;2.53;;;;;;;;;;4247217;33;20574;-68
2023/04/06 10:38:54;;;;;;;3.05;1.75;;;;;;;;;;4247550;33;20072;-69
2023/04/06 10:41:21;;;;;;;2.55;2.33;;;;;;;;;;4244808;33;20058;-69
2023/04/06 10:43:54;;;;;;;4.30;2.35;;;;;;;;;;4245868;33;20038;-68
2023/04/06 10:46:24;;;;;;;5.55;1.73;;;;;;;;;;4246320;33;20147;-68
2023/04/06 10:48:51;;;;;;;6.32;3.20;;;;;;;;;;4233940;33;20090;-68
2023/04/06 10:51:17;;;;;;;1.77;1.67;;;;;;;;;;4234374;33;20047;-67
2023/04/06 10:53:48;;;;;;;6.20;2.65;;;;;;;;;;4235649;33;20038;-68
2023/04/06 10:56:16;;;;;;;3.83;2.80;;;;;;;;;;4233107;33;20122;-70
2023/04/06 10:58:48;;;;;;;2.72;1.95;;;;;;;;;;4234654;33;21099;-69
2023/04/06 11:01:18;;;;;;;2.28;1.45;;;;;;;;;;4367027;28;20136;-69
2023/04/06 11:03:48;;;;;;;8.18;3.22;;;;;;;;;;4219406;34;20058;-68
2023/04/06 11:06:18;;;;;;;4.40;3.58;;;;;;;;;;4205636;34;20050;-68
2023/04/06 11:08:44;;;;;;;2.17;1.87;;;;;;;;;;4207375;34;20031;-69
2023/04/06 11:11:15;;;;;;;2.83;2.05;;;;;;;;;;4205112;34;20529;-70
2023/04/06 11:13:44;;;;;;;2.03;1.93;;;;;;;;;;4203977;34;20087;-70
2023/04/06 11:16:14;;;;;;;4.93;2.65;;;;;;;;;;4207514;34;20053;-69
2023/04/06 11:18:49;;;;;;;2.47;1.70;;;;;;;;;;4205518;34;20484;-68
2023/04/06 11:21:16;;;;;;;1.35;1.35;;;;;;;;;;4202592;34;20054;-69
2023/04/06 11:23:42;;;;;;;7.18;3.25;;;;;;;;;;4207228;34;20303;-68
2023/04/06 11:26:12;;;;;;;2.67;2.05;;;;;;;;;;4207242;34;20048;-68
2023/04/06 11:28:39;;;;;;;3.67;2.53;;;;;;;;;;4208592;34;20056;-70
2023/04/06 11:31:11;;;;;;;14.30;2.42;;;;;;;;;;4197947;34;20362;-70
2023/04/06 11:33:38;;;;;;;3.90;2.62;;;;;;;;;;4200966;34;20087;-68
2023/04/06 11:36:05;;;;;;;6.18;3.62;;;;;;;;;;4201585;34;20129;-68
2023/04/06 11:38:31;;;;;;;2.83;2.33;;;;;;;;;;4207179;34;20772;-68
2023/04/06 11:40:58;;;;;;;1.98;1.87;;;;;;;;;;4206390;34;20511;-69
2023/04/06 11:43:30;;;;;;;6.18;3.67;;;;;;;;;;4203465;34;20054;-70
2023/04/06 11:46:01;;;;;;;6.95;3.95;;;;;;;;;;4205568;34;20062;-69
2023/04/06 11:48:28;;;;;;;7.22;4.28;;;;;;;;;;4204994;34;20075;-68
2023/04/06 11:50:56;;;;;;;10.95;4.12;;;;;;;;;;4183261;34;20095;-69
2023/04/06 11:53:22;;;;;;;1.95;1.48;;;;;;;;;;4199470;34;20055;-70
2023/04/06 11:55:48;;;;;;;3.97;2.37;;;;;;;;;;4201463;34;20106;-67
2023/04/06 11:58:14;;;;;;;5.97;3.20;;;;;;;;;;4204022;34;20082;-69
2023/04/06 12:00:45;;;;;;;8.32;3.67;;;;;;;;;;4191694;34;20050;-70
2023/04/06 12:03:11;;;;;;;10.70;4.12;;;;;;;;;;4217935;33;20126;-71
2023/04/06 12:05:38;;;;;;;10.00;5.47;;;;;;;;;;4218974;33;20085;-69
2023/04/06 12:08:04;;;;;;;6.00;3.72;;;;;;;;;;4219993;33;20227;-69
2023/04/06 12:10:31;;;;;;;9.73;4.15;;;;;;;;;;4236356;33;20049;-69
2023/04/06 12:12:57;;;;;;;4.47;2.87;;;;;;;;;;4218693;33;20158;-70
2023/04/06 12:15:23;;;;;;;8.65;3.62;;;;;;;;;;4220418;33;20479;-69
2023/04/06 12:17:49;;;;;;;3.40;2.12;;;;;;;;;;4219720;33;20120;-69
2023/04/06 12:20:16;;;;;;;2.25;2.08;;;;;;;;;;4225030;33;20854;-69
2023/04/06 12:22:42;;;;;;;3.90;2.65;;;;;;;;;;4219287;33;20162;-69
2023/04/06 12:25:08;;;;;;;2.65;2.45;;;;;;;;;;4219706;34;20066;-69
2023/04/06 12:27:34;;;;;;;2.65;2.05;;;;;;;;;;4220134;34;20054;-69
2023/04/06 12:30:07;;;;;;;2.20;1.62;;;;;;;;;;4219943;33;20054;-68
2023/04/06 12:32:33;;;;;;;5.35;3.45;;;;;;;;;;4207483;34;20096;-68
2023/04/06 12:34:59;;;;;;;6.35;3.60;;;;;;;;;;4203244;34;20123;-68
2023/04/06 12:37:26;;;;;;;13.20;3.90;;;;;;;;;;4201136;34;20116;-68
2023/04/06 12:39:53;;;;;;;6.22;3.70;;;;;;;;;;4200819;34;20179;-68
2023/04/06 12:42:19;;;;;;;5.07;3.03;;;;;;;;;;4206279;34;20106;-70
2023/04/06 12:44:46;;;;;;;3.83;2.70;;;;;;;;;;4216537;33;20118;-69
2023/04/06 12:47:13;;;;;;;4.57;2.90;;;;;;;;;;4202147;34;20032;-69
2023/04/06 12:49:39;;;;;;;7.60;2.70;;;;;;;;;;4206676;34;20094;-68
2023/04/06 12:52:05;;;;;;;5.18;3.22;;;;;;;;;;4202526;34;20118;-68
2023/04/06 12:54:32;;;;;;;3.00;2.33;;;;;;;;;;4196911;34;20170;-68
2023/04/06 12:56:58;;;;;;;10.88;3.62;;;;;;;;;;4203109;34;20074;-68
2023/04/06 12:59:24;;;;;;;4.90;3.40;;;;;;;;;;4207599;34;20051;-69
2023/04/06 13:01:52;;;;;;;5.50;2.25;;;;;;;;;;4207820;34;20039;-68
2023/04/06 13:04:18;;;;;;;5.55;3.62;;;;;;;;;;4215143;33;20404;-68
2023/04/06 13:06:44;;;;;;;6.50;3.20;;;;;;;;;;4210043;33;20223;-69
2023/04/06 13:09:11;;;;;;;5.82;3.90;;;;;;;;;;4211162;33;20061;-68
2023/04/06 13:11:37;;;;;;;12.63;3.00;;;;;;;;;;4210608;33;20050;-68
2023/04/06 13:14:03;;;;;;;2.05;1.40;;;;;;;;;;4228084;33;20125;-69
2023/04/06 13:16:30;;;;;;;5.37;3.17;;;;;;;;;;4235803;33;20085;-68
2023/04/06 13:18:57;;;;;;;15.30;2.37;;;;;;;;;;4235398;33;20499;-68
2023/04/06 13:21:23;;;;;;;5.37;3.62;;;;;;;;;;4235067;33;20058;-70
2023/04/06 13:23:49;;;;;;;6.45;3.75;;;;;;;;;;4220666;34;20931;-68
2023/04/06 13:26:16;;;;;;;6.18;4.10;;;;;;;;;;4222659;34;20051;-68
2023/04/06 13:28:42;;;;;;;3.35;2.30;;;;;;;;;;4222928;33;20058;-67
2023/04/06 13:31:09;;;;;;;6.45;3.37;;;;;;;;;;4222075;33;20576;-67
2023/04/06 13:33:35;;;;;;;6.75;3.90;;;;;;;;;;4221006;33;20081;-70
2023/04/06 13:36:02;;;;;;;3.17;1.70;;;;;;;;;;4223308;34;20054;-67
2023/04/06 13:38:29;;;;;;;4.72;2.53;;;;;;;;;;4223219;34;20077;-67
2023/04/06 13:41:01;;;;;;;15.43;3.80;;;;;;;;;;4222095;33;20076;-68
2023/04/06 13:43:28;;;;;;;6.12;3.20;;;;;;;;;;4221902;33;20039;-67
2023/04/06 13:45:55;;;;;;;9.30;2.97;;;;;;;;;;4207455;34;20448;-70
2023/04/06 13:48:22;;;;;;;4.65;3.35;;;;;;;;;;4208585;34;20601;-68
2023/04/06 13:50:48;;;;;;;5.62;4.03;;;;;;;;;;4207200;34;20375;-68
2023/04/06 13:53:14;;;;;;;6.12;3.05;;;;;;;;;;4206735;34;20070;-68
2023/04/06 13:55:54;;;;;;;6.25;4.05;;;;;;;;;;4200583;34;20051;-69
2023/04/06 13:58:21;;;;;;;5.85;3.17;;;;;;;;;;4206995;34;20109;-69
2023/04/06 14:00:47;;;;;;;3.83;2.45;;;;;;;;;;4207766;34;20462;-68
2023/04/06 14:03:13;;;;;;;6.65;3.08;;;;;;;;;;4182558;34;20173;-68
2023/04/06 14:05:39;;;;;;;7.75;4.15;;;;;;;;;;4194608;34;20098;-68
2023/04/06 14:08:05;;;;;;;10.30;3.62;;;;;;;;;;4193606;34;20065;-69
2023/04/06 14:10:36;;;;;;;9.10;4.22;;;;;;;;;;4194567;34;20069;-70
2023/04/06 14:13:02;;;;;;;9.90;4.45;;;;;;;;;;4194324;34;20063;-68
2023/04/06 14:15:29;;;;;;;8.25;2.78;;;;;;;;;;4195182;34;20622;-68
2023/04/06 14:17:56;;;;;;;10.27;4.78;;;;;;;;;;4206250;34;20549;-68
2023/04/06 14:20:22;;;;;;;3.42;1.75;;;;;;;;;;4205399;34;20077;-71
2023/04/06 14:22:49;;;;;;;8.90;4.93;;;;;;;;;;4208725;34;20217;-68
2023/04/06 14:25:15;;;;;;;13.13;4.43;;;;;;;;;;4194853;34;20090;-69
2023/04/06 14:27:42;;;;;;;7.70;2.70;;;;;;;;;;4194137;34;20073;-69
2023/04/06 14:30:08;;;;;;;3.67;2.37;;;;;;;;;;4193234;34;20073;-67
2023/04/06 14:32:36;;;;;;;9.82;5.35;;;;;;;;;;4193361;34;20047;-69
2023/04/06 14:35:02;;;;;;;5.75;3.15;;;;;;;;;;4204722;34;20047;-67
2023/04/06 14:37:28;;;;;;;5.50;3.33;;;;;;;;;;4208052;34;20070;-68
2023/04/06 14:39:54;;;;;;;7.95;4.15;;;;;;;;;;4206758;34;20068;-68
2023/04/06 14:42:21;;;;;;;12.30;4.40;;;;;;;;;;4206576;34;20462;-68
2023/04/06 14:44:48;;;;;;;4.87;2.50;;;;;;;;;;4211340;34;20050;-70
2023/04/06 14:47:20;;;;;;;5.00;3.70;;;;;;;;;;4207799;34;20051;-68
2023/04/06 14:49:47;;;;;;;11.65;5.22;;;;;;;;;;4205772;34;20076;-68
2023/04/06 14:52:13;;;;;;;8.18;4.70;;;;;;;;;;4192106;34;20074;-68
2023/04/06 14:54:39;;;;;;;9.57;4.75;;;;;;;;;;4192356;34;20097;-68
2023/04/06 14:57:05;;;;;;;5.00;3.35;;;;;;;;;;4207949;34;20133;-71
2023/04/06 14:59:38;;;;;;;;;;;;;;;;;;4209813;34;20046;-68
2023/04/06 15:02:04;;;;;;;14.63;5.05;;;;;;;;;;4209779;34;19958;-68
2023/04/06 15:04:30;;;;;;;11.40;4.93;;;;;;;;;;4209478;34;20075;-67
2023/04/06 15:06:56;;;;;;;6.53;2.42;;;;;;;;;;4207683;34;20048;-72
2023/04/06 15:09:23;;;;;;;7.57;5.28;;;;;;;;;;4218867;33;20479;-68
2023/04/06 15:11:49;;;;;;;12.55;5.45;;;;;;;;;;4220907;33;20125;-68
2023/04/06 15:14:15;;;;;;;10.90;5.95;;;;;;;;;;4218883;33;20118;-68
2023/04/06 15:16:41;;;;;;;9.93;3.80;;;;;;;;;;4206367;34;20539;-68
2023/04/06 15:19:08;;;;;;;5.93;3.30;;;;;;;;;;4204518;34;20047;-71
2023/04/06 15:21:34;;;;;;;10.82;5.43;;;;;;;;;;4204555;34;20071;-68
2023/04/06 15:24:01;;;;;;;5.65;3.22;;;;;;;;;;4195275;34;20377;-69
2023/04/06 15:26:35;;;;;;;13.75;6.40;;;;;;;;;;4176239;34;20078;-68
2023/04/06 15:29:01;;;;;;;5.53;2.92;;;;;;;;;;4181201;34;20078;-68
2023/04/06 15:31:27;;;;;;;13.02;5.32;;;;;;;;;;4191986;34;20070;-71
2023/04/06 15:33:54;;;;;;;6.55;4.60;;;;;;;;;;4191177;34;20051;-68
2023/04/06 15:36:26;;;;;;;4.70;3.37;;;;;;;;;;4192120;34;20077;-67
2023/04/06 15:38:52;;;;;;;11.63;5.57;;;;;;;;;;4192684;34;20073;-68
2023/04/06 15:41:18;;;;;;;9.40;4.22;;;;;;;;;;4193236;34;20077;-68
2023/04/06 15:43:44;;;;;;;11.30;4.90;;;;;;;;;;4177649;34;20056;-68
2023/04/06 15:46:11;;;;;;;6.97;3.83;;;;;;;;;;4177511;34;21028;-67
2023/04/06 15:48:37;;;;;;;10.90;4.95;;;;;;;;;;4179193;34;20151;-69
2023/04/06 15:51:03;;;;;;;6.00;3.97;;;;;;;;;;4189338;34;20495;-69
2023/04/06 15:53:29;;;;;;;9.82;5.32;;;;;;;;;;4191334;34;20146;-71
2023/04/06 15:56:02;;;;;;;7.47;4.95;;;;;;;;;;4192015;34;20106;-68
2023/04/06 15:58:29;;;;;;;3.90;3.47;;;;;;;;;;4187565;34;20055;-67
2023/04/06 16:00:55;;;;;;;10.07;5.53;;;;;;;;;;4194325;34;20055;-68
2023/04/06 16:03:21;;;;;;;11.65;4.60;;;;;;;;;;4192425;34;20061;-67
2023/04/06 16:05:47;;;;;;;8.57;5.25;;;;;;;;;;4218237;33;20050;-68
2023/04/06 16:08:15;;;;;;;7.22;3.60;;;;;;;;;;4221341;33;20067;-68
2023/04/06 16:10:41;;;;;;;10.32;6.25;;;;;;;;;;4219762;33;20492;-67
2023/04/06 16:13:08;;;;;;;13.75;4.57;;;;;;;;;;4220970;33;20051;-68
2023/04/06 16:15:34;;;;;;;10.00;5.85;;;;;;;;;;4231831;33;20062;-71
2023/04/06 16:18:01;;;;;;;2.92;2.62;;;;;;;;;;4235139;33;20173;-68
2023/04/06 16:20:27;;;;;;;7.18;5.40;;;;;;;;;;4234404;33;20046;-69
2023/04/06 16:22:53;;;;;;;4.50;2.67;;;;;;;;;;4235611;33;20068;-67
2023/04/06 16:25:19;;;;;;;13.05;4.95;;;;;;;;;;4233441;33;20412;-68
2023/04/06 16:27:46;;;;;;;9.73;4.53;;;;;;;;;;4243783;33;20070;-68
2023/04/06 16:30:12;;;;;;;18.08;4.47;;;;;;;;;;4235607;33;20343;-69
2023/04/06 16:32:38;;;;;;;9.70;5.37;;;;;;;;;;4222902;33;20038;-68
2023/04/06 16:35:05;;;;;;;8.30;5.37;;;;;;;;;;4234865;33;20068;-68
2023/04/06 16:37:31;;;;;;;8.00;5.28;;;;;;;;;;4237590;33;20377;-71